sensor_id;sensor_type;location;lat;lon;timestamp;temperature;humidity
7232;DHT22;3657;49.630;11.018;2022-12-18T00:00:43;-6.40;99.90
7232;DHT22;3657;49.630;11.018;2022-12-18T00:03:12;-6.30;99.90
7232;DHT22;3657;49.630;11.018;2022-12-18T00:05:47;-6.40;99.90
7232;DHT22;3657;49.630;11.018;2022-12-18T00:08:14;-6.40;99.90
7232;DHT22;3657;49.630;11.018;2022-12-18T00:10:41;-6.40;99.90
7232;DHT22;3657;49.630;11.018;2022-12-18T00:13:08;-6.50;99.90
7232;DHT22;3657;49.630;11.018;2022-12-18T00:15:35;-6.50;99.90
7232;DHT22;3657;49.630;11.018;2022-12-18T00:18:02;-6.50;99.90
7232;DHT22;3657;49.630;11.018;2022-12-18T00:20:28;-6.50;99.90
7232;DHT22;3657;49.630;11.018;2022-12-18T00:22:57;-6.50;99.90
7232;DHT22;3657;49.630;11.018;2022-12-18T00:25:23;-6.50;99.90
7232;DHT22;3657;49.630;11.018;2022-12-18T00:27:50;-6.50;99.90
7232;DHT22;3657;49.630;11.018;2022-12-18T00:30:17;-6.50;99.90
7232;DHT22;3657;49.630;11.018;2022-12-18T00:32:44;-6.50;99.90
7232;DHT22;3657;49.630;11.018;2022-12-18T00:35:10;-6.60;99.90
7232;DHT22;3657;49.630;11.018;2022-12-18T00:37:37;-6.60;99.90
7232;DHT22;3657;49.630;11.018;2022-12-18T00:40:07;-6.60;99.90
7232;DHT22;3657;49.630;11.018;2022-12-18T00:42:33;-6.70;99.90
7232;DHT22;3657;49.630;11.018;2022-12-18T00:45:23;-6.70;99.90
7232;DHT22;3657;49.630;11.018;2022-12-18T00:47:51;-6.70;99.90
7232;DHT22;3657;49.630;11.018;2022-12-18T00:50:18;-6.70;99.90
7232;DHT22;3657;49.630;11.018;2022-12-18T00:52:45;-6.70;99.90
7232;DHT22;3657;49.630;11.018;2022-12-18T00:55:13;-6.70;99.90
7232;DHT22;3657;49.630;11.018;2022-12-18T00:57:40;-6.70;99.90
7232;DHT22;3657;49.630;11.018;2022-12-18T01:00:09;-6.70;99.90
7232;DHT22;3657;49.630;11.018;2022-12-18T01:02:36;-6.70;99.90
7232;DHT22;3657;49.630;11.018;2022-12-18T01:05:04;-6.80;99.90
7232;DHT22;3657;49.630;11.018;2022-12-18T01:07:30;-6.80;99.90
7232;DHT22;3657;49.630;11.018;2022-12-18T01:09:57;-6.80;99.90
7232;DHT22;3657;49.630;11.018;2022-12-18T01:12:25;-6.80;99.90
7232;DHT22;3657;49.630;11.018;2022-12-18T01:14:52;-6.80;99.90
7232;DHT22;3657;49.630;11.018;2022-12-18T01:17:19;-6.80;99.90
7232;DHT22;3657;49.630;11.018;2022-12-18T01:19:45;-6.80;99.90
7232;DHT22;3657;49.630;11.018;2022-12-18T01:22:12;-6.80;99.90
7232;DHT22;3657;49.630;11.018;2022-12-18T01:24:39;-6.80;99.90
7232;DHT22;3657;49.630;11.018;2022-12-18T01:27:05;-6.80;99.90
7232;DHT22;3657;49.630;11.018;2022-12-18T01:29:33;-6.90;99.90
7232;DHT22;3657;49.630;11.018;2022-12-18T01:32:00;-6.90;99.90
7232;DHT22;3657;49.630;11.018;2022-12-18T01:34:27;-6.90;99.90
7232;DHT22;3657;49.630;11.018;2022-12-18T01:36:54;-7.00;99.90
7232;DHT22;3657;49.630;11.018;2022-12-18T01:39:20;-6.90;99.90
7232;DHT22;3657;49.630;11.018;2022-12-18T01:41:47;-7.00;99.90
7232;DHT22;3657;49.630;11.018;2022-12-18T01:45:01;-7.00;99.90
7232;DHT22;3657;49.630;11.018;2022-12-18T01:47:32;-7.00;99.90
7232;DHT22;3657;49.630;11.018;2022-12-18T01:50:02;-7.00;99.90
7232;DHT22;3657;49.630;11.018;2022-12-18T01:52:31;-7.00;99.90
7232;DHT22;3657;49.630;11.018;2022-12-18T01:54:59;-7.00;99.90
7232;DHT22;3657;49.630;11.018;2022-12-18T01:57:28;-7.00;99.90
7232;DHT22;3657;49.630;11.018;2022-12-18T01:59:59;-7.10;99.90
7232;DHT22;3657;49.630;11.018;2022-12-18T02:02:28;-7.10;99.90
7232;DHT22;3657;49.630;11.018;2022-12-18T02:04:55;-7.10;99.90
7232;DHT22;3657;49.630;11.018;2022-12-18T02:07:29;-7.10;99.90
7232;DHT22;3657;49.630;11.018;2022-12-18T02:10:00;-7.10;99.90
7232;DHT22;3657;49.630;11.018;2022-12-18T02:12:35;-7.10;99.90
7232;DHT22;3657;49.630;11.018;2022-12-18T02:15:12;-7.10;99.90
7232;DHT22;3657;49.630;11.018;2022-12-18T02:17:43;-7.20;99.90
7232;DHT22;3657;49.630;11.018;2022-12-18T02:20:17;-7.20;99.90
7232;DHT22;3657;49.630;11.018;2022-12-18T02:23:01;-7.20;99.90
7232;DHT22;3657;49.630;11.018;2022-12-18T02:25:51;-7.20;99.90
7232;DHT22;3657;49.630;11.018;2022-12-18T02:28:21;-7.20;99.90
7232;DHT22;3657;49.630;11.018;2022-12-18T02:30:51;-7.30;99.90
7232;DHT22;3657;49.630;11.018;2022-12-18T02:33:20;-7.30;99.90
7232;DHT22;3657;49.630;11.018;2022-12-18T02:35:51;-7.30;99.90
7232;DHT22;3657;49.630;11.018;2022-12-18T02:38:19;-7.30;99.90
7232;DHT22;3657;49.630;11.018;2022-12-18T02:40:46;-7.30;99.90
7232;DHT22;3657;49.630;11.018;2022-12-18T02:43:15;-7.30;99.90
7232;DHT22;3657;49.630;11.018;2022-12-18T02:45:50;-7.30;99.90
7232;DHT22;3657;49.630;11.018;2022-12-18T02:48:20;-7.30;99.90
7232;DHT22;3657;49.630;11.018;2022-12-18T02:50:52;-7.40;99.90
7232;DHT22;3657;49.630;11.018;2022-12-18T02:53:26;-7.40;99.90
7232;DHT22;3657;49.630;11.018;2022-12-18T02:56:01;-7.40;99.90
7232;DHT22;3657;49.630;11.018;2022-12-18T02:58:37;-7.40;99.90
7232;DHT22;3657;49.630;11.018;2022-12-18T03:01:13;-7.40;99.90
7232;DHT22;3657;49.630;11.018;2022-12-18T03:03:46;-7.50;99.90
7232;DHT22;3657;49.630;11.018;2022-12-18T03:06:17;-7.50;99.90
7232;DHT22;3657;49.630;11.018;2022-12-18T03:08:51;-7.50;99.90
7232;DHT22;3657;49.630;11.018;2022-12-18T03:11:23;-7.50;99.90
7232;DHT22;3657;49.630;11.018;2022-12-18T03:14:07;-7.50;99.90
7232;DHT22;3657;49.630;11.018;2022-12-18T03:16:36;-7.50;99.90
7232;DHT22;3657;49.630;11.018;2022-12-18T03:19:06;-7.50;99.90
7232;DHT22;3657;49.630;11.018;2022-12-18T03:21:37;-7.50;99.90
7232;DHT22;3657;49.630;11.018;2022-12-18T03:24:07;-7.60;99.90
7232;DHT22;3657;49.630;11.018;2022-12-18T03:26:35;-7.60;99.90
7232;DHT22;3657;49.630;11.018;2022-12-18T03:29:07;-7.60;99.90
7232;DHT22;3657;49.630;11.018;2022-12-18T03:31:37;-7.60;99.90
7232;DHT22;3657;49.630;11.018;2022-12-18T03:34:11;-7.60;99.90
7232;DHT22;3657;49.630;11.018;2022-12-18T03:36:39;-7.60;99.90
7232;DHT22;3657;49.630;11.018;2022-12-18T03:39:06;-7.60;99.90
7232;DHT22;3657;49.630;11.018;2022-12-18T03:41:38;-7.60;99.90
7232;DHT22;3657;49.630;11.018;2022-12-18T03:44:11;-7.60;99.90
7232;DHT22;3657;49.630;11.018;2022-12-18T03:46:45;-7.60;99.90
7232;DHT22;3657;49.630;11.018;2022-12-18T03:49:17;-7.70;99.90
7232;DHT22;3657;49.630;11.018;2022-12-18T03:51:51;-7.70;99.90
7232;DHT22;3657;49.630;11.018;2022-12-18T03:54:19;-7.70;99.90
7232;DHT22;3657;49.630;11.018;2022-12-18T03:56:54;-7.70;99.90
7232;DHT22;3657;49.630;11.018;2022-12-18T03:59:23;-7.70;99.90
7232;DHT22;3657;49.630;11.018;2022-12-18T04:01:53;-7.80;99.90
7232;DHT22;3657;49.630;11.018;2022-12-18T04:04:21;-7.70;99.90
7232;DHT22;3657;49.630;11.018;2022-12-18T04:06:49;-7.70;99.90
7232;DHT22;3657;49.630;11.018;2022-12-18T04:09:17;-7.70;99.90
7232;DHT22;3657;49.630;11.018;2022-12-18T04:11:46;-7.80;99.90
7232;DHT22;3657;49.630;11.018;2022-12-18T04:14:14;-7.80;99.90
7232;DHT22;3657;49.630;11.018;2022-12-18T04:16:42;-7.80;99.90
7232;DHT22;3657;49.630;11.018;2022-12-18T04:19:08;-7.80;99.90
7232;DHT22;3657;49.630;11.018;2022-12-18T04:21:35;-7.90;99.90
7232;DHT22;3657;49.630;11.018;2022-12-18T04:24:02;-7.90;99.90
7232;DHT22;3657;49.630;11.018;2022-12-18T04:26:29;-7.90;99.90
7232;DHT22;3657;49.630;11.018;2022-12-18T04:28:55;-7.90;99.90
7232;DHT22;3657;49.630;11.018;2022-12-18T04:31:22;-7.90;99.90
7232;DHT22;3657;49.630;11.018;2022-12-18T04:33:50;-7.90;99.90
7232;DHT22;3657;49.630;11.018;2022-12-18T04:36:17;-7.90;99.90
7232;DHT22;3657;49.630;11.018;2022-12-18T04:38:44;-7.90;99.90
7232;DHT22;3657;49.630;11.018;2022-12-18T04:41:10;-7.90;99.90
7232;DHT22;3657;49.630;11.018;2022-12-18T04:43:37;-8.00;99.90
7232;DHT22;3657;49.630;11.018;2022-12-18T04:46:05;-8.00;99.90
7232;DHT22;3657;49.630;11.018;2022-12-18T04:48:32;-8.00;99.90
7232;DHT22;3657;49.630;11.018;2022-12-18T04:51:00;-8.00;99.90
7232;DHT22;3657;49.630;11.018;2022-12-18T04:53:27;-8.00;99.90
7232;DHT22;3657;49.630;11.018;2022-12-18T04:56:06;-8.00;99.90
7232;DHT22;3657;49.630;11.018;2022-12-18T04:58:34;-8.00;99.90
7232;DHT22;3657;49.630;11.018;2022-12-18T05:01:00;-8.00;99.90
7232;DHT22;3657;49.630;11.018;2022-12-18T05:03:27;-8.10;99.90
7232;DHT22;3657;49.630;11.018;2022-12-18T05:05:54;-8.10;99.90
7232;DHT22;3657;49.630;11.018;2022-12-18T05:08:22;-8.20;99.90
7232;DHT22;3657;49.630;11.018;2022-12-18T05:10:49;-8.20;99.90
7232;DHT22;3657;49.630;11.018;2022-12-18T05:13:16;-8.20;99.90
7232;DHT22;3657;49.630;11.018;2022-12-18T05:15:43;-8.20;99.90
7232;DHT22;3657;49.630;11.018;2022-12-18T05:18:17;-8.20;99.90
7232;DHT22;3657;49.630;11.018;2022-12-18T05:20:43;-8.20;99.90
7232;DHT22;3657;49.630;11.018;2022-12-18T05:23:10;-8.30;99.90
7232;DHT22;3657;49.630;11.018;2022-12-18T05:25:38;-8.40;99.90
7232;DHT22;3657;49.630;11.018;2022-12-18T05:28:05;-8.30;99.90
7232;DHT22;3657;49.630;11.018;2022-12-18T05:30:32;-8.30;99.90
7232;DHT22;3657;49.630;11.018;2022-12-18T05:32:58;-8.30;99.90
7232;DHT22;3657;49.630;11.018;2022-12-18T05:35:25;-8.30;99.90
7232;DHT22;3657;49.630;11.018;2022-12-18T05:37:52;-8.30;99.90
7232;DHT22;3657;49.630;11.018;2022-12-18T05:40:18;-8.20;99.90
7232;DHT22;3657;49.630;11.018;2022-12-18T05:42:46;-8.20;99.90
7232;DHT22;3657;49.630;11.018;2022-12-18T05:45:13;-8.20;99.90
7232;DHT22;3657;49.630;11.018;2022-12-18T05:47:40;-8.20;99.90
7232;DHT22;3657;49.630;11.018;2022-12-18T05:50:07;-8.20;99.90
7232;DHT22;3657;49.630;11.018;2022-12-18T05:52:34;-8.20;99.90
7232;DHT22;3657;49.630;11.018;2022-12-18T05:55:01;-8.20;99.90
7232;DHT22;3657;49.630;11.018;2022-12-18T05:57:27;-8.20;99.90
7232;DHT22;3657;49.630;11.018;2022-12-18T05:59:56;-8.20;99.90
7232;DHT22;3657;49.630;11.018;2022-12-18T06:02:22;-8.20;99.90
7232;DHT22;3657;49.630;11.018;2022-12-18T06:04:49;-8.20;99.90
7232;DHT22;3657;49.630;11.018;2022-12-18T06:07:16;-8.20;99.90
7232;DHT22;3657;49.630;11.018;2022-12-18T06:09:42;-8.20;99.90
7232;DHT22;3657;49.630;11.018;2022-12-18T06:12:09;-8.20;99.90
7232;DHT22;3657;49.630;11.018;2022-12-18T06:14:37;-8.30;99.90
7232;DHT22;3657;49.630;11.018;2022-12-18T06:17:05;-8.30;99.90
7232;DHT22;3657;49.630;11.018;2022-12-18T06:19:32;-8.30;99.90
7232;DHT22;3657;49.630;11.018;2022-12-18T06:21:59;-8.30;99.90
7232;DHT22;3657;49.630;11.018;2022-12-18T06:24:26;-8.30;99.90
7232;DHT22;3657;49.630;11.018;2022-12-18T06:26:52;-8.30;99.90
7232;DHT22;3657;49.630;11.018;2022-12-18T06:29:19;-8.30;99.90
7232;DHT22;3657;49.630;11.018;2022-12-18T06:31:46;-8.30;99.90
7232;DHT22;3657;49.630;11.018;2022-12-18T06:34:14;-8.40;99.90
7232;DHT22;3657;49.630;11.018;2022-12-18T06:36:40;-8.40;99.90
7232;DHT22;3657;49.630;11.018;2022-12-18T06:39:07;-8.40;99.90
7232;DHT22;3657;49.630;11.018;2022-12-18T06:41:34;-8.40;99.90
7232;DHT22;3657;49.630;11.018;2022-12-18T06:44:00;-8.50;99.90
7232;DHT22;3657;49.630;11.018;2022-12-18T06:46:27;-8.40;99.90
7232;DHT22;3657;49.630;11.018;2022-12-18T06:48:54;-8.50;99.90
7232;DHT22;3657;49.630;11.018;2022-12-18T06:51:23;-8.40;99.90
7232;DHT22;3657;49.630;11.018;2022-12-18T06:53:50;-8.40;99.90
7232;DHT22;3657;49.630;11.018;2022-12-18T06:56:17;-8.50;99.90
7232;DHT22;3657;49.630;11.018;2022-12-18T06:58:44;-8.50;99.90
7232;DHT22;3657;49.630;11.018;2022-12-18T07:01:11;-8.40;99.90
7232;DHT22;3657;49.630;11.018;2022-12-18T07:03:39;-8.50;99.90
7232;DHT22;3657;49.630;11.018;2022-12-18T07:06:11;-8.50;99.90
7232;DHT22;3657;49.630;11.018;2022-12-18T07:08:40;-8.50;99.90
7232;DHT22;3657;49.630;11.018;2022-12-18T07:11:07;-8.50;99.90
7232;DHT22;3657;49.630;11.018;2022-12-18T07:13:34;-8.50;99.90
7232;DHT22;3657;49.630;11.018;2022-12-18T07:16:08;-8.50;99.90
7232;DHT22;3657;49.630;11.018;2022-12-18T07:18:35;-8.50;99.90
7232;DHT22;3657;49.630;11.018;2022-12-18T07:21:06;-8.50;99.90
7232;DHT22;3657;49.630;11.018;2022-12-18T07:23:33;-8.40;99.90
7232;DHT22;3657;49.630;11.018;2022-12-18T07:26:03;-8.50;99.90
7232;DHT22;3657;49.630;11.018;2022-12-18T07:28:30;-8.50;99.90
7232;DHT22;3657;49.630;11.018;2022-12-18T07:30:57;-8.50;99.90
7232;DHT22;3657;49.630;11.018;2022-12-18T07:33:25;-8.50;99.90
7232;DHT22;3657;49.630;11.018;2022-12-18T07:35:52;-8.50;99.90
7232;DHT22;3657;49.630;11.018;2022-12-18T07:38:18;-8.50;99.90
7232;DHT22;3657;49.630;11.018;2022-12-18T07:40:45;-8.50;99.90
7232;DHT22;3657;49.630;11.018;2022-12-18T07:43:13;-8.50;99.90
7232;DHT22;3657;49.630;11.018;2022-12-18T07:45:40;-8.40;99.90
7232;DHT22;3657;49.630;11.018;2022-12-18T07:48:06;-8.40;99.90
7232;DHT22;3657;49.630;11.018;2022-12-18T07:50:33;-8.40;99.90
7232;DHT22;3657;49.630;11.018;2022-12-18T07:53:00;-8.40;99.90
7232;DHT22;3657;49.630;11.018;2022-12-18T07:55:28;-8.30;99.90
7232;DHT22;3657;49.630;11.018;2022-12-18T07:57:55;-8.30;99.90
7232;DHT22;3657;49.630;11.018;2022-12-18T08:00:23;-8.30;99.90
7232;DHT22;3657;49.630;11.018;2022-12-18T08:02:50;-8.30;99.90
7232;DHT22;3657;49.630;11.018;2022-12-18T08:05:17;-8.20;99.90
7232;DHT22;3657;49.630;11.018;2022-12-18T08:07:44;-8.20;99.90
7232;DHT22;3657;49.630;11.018;2022-12-18T08:10:10;-8.20;99.90
7232;DHT22;3657;49.630;11.018;2022-12-18T08:12:37;-8.10;99.90
7232;DHT22;3657;49.630;11.018;2022-12-18T08:15:05;-8.10;99.90
7232;DHT22;3657;49.630;11.018;2022-12-18T08:17:33;-8.10;99.90
7232;DHT22;3657;49.630;11.018;2022-12-18T08:19:59;-8.10;99.90
7232;DHT22;3657;49.630;11.018;2022-12-18T08:22:26;-8.10;99.90
7232;DHT22;3657;49.630;11.018;2022-12-18T08:24:53;-8.10;99.90
7232;DHT22;3657;49.630;11.018;2022-12-18T08:27:20;-8.10;99.90
7232;DHT22;3657;49.630;11.018;2022-12-18T08:29:46;-8.00;99.90
7232;DHT22;3657;49.630;11.018;2022-12-18T08:32:13;-8.00;99.90
7232;DHT22;3657;49.630;11.018;2022-12-18T08:34:41;-8.00;99.90
7232;DHT22;3657;49.630;11.018;2022-12-18T08:37:08;-8.00;99.90
7232;DHT22;3657;49.630;11.018;2022-12-18T08:39:34;-7.90;99.90
7232;DHT22;3657;49.630;11.018;2022-12-18T08:42:01;-7.90;99.90
7232;DHT22;3657;49.630;11.018;2022-12-18T08:44:45;-7.90;99.90
7232;DHT22;3657;49.630;11.018;2022-12-18T08:47:12;-7.90;99.90
7232;DHT22;3657;49.630;11.018;2022-12-18T08:49:40;-7.90;99.90
7232;DHT22;3657;49.630;11.018;2022-12-18T08:52:07;-7.90;99.90
7232;DHT22;3657;49.630;11.018;2022-12-18T08:54:34;-7.90;99.90
7232;DHT22;3657;49.630;11.018;2022-12-18T08:57:01;-7.90;99.90
7232;DHT22;3657;49.630;11.018;2022-12-18T08:59:27;-7.90;99.90
7232;DHT22;3657;49.630;11.018;2022-12-18T09:01:54;-7.80;99.90
7232;DHT22;3657;49.630;11.018;2022-12-18T09:04:21;-7.80;99.90
7232;DHT22;3657;49.630;11.018;2022-12-18T09:06:49;-7.80;99.90
7232;DHT22;3657;49.630;11.018;2022-12-18T09:09:16;-7.80;99.90
7232;DHT22;3657;49.630;11.018;2022-12-18T09:11:42;-7.70;99.90
7232;DHT22;3657;49.630;11.018;2022-12-18T09:14:10;-7.70;99.90
7232;DHT22;3657;49.630;11.018;2022-12-18T09:16:37;-7.60;99.90
7232;DHT22;3657;49.630;11.018;2022-12-18T09:19:04;-7.60;99.90
7232;DHT22;3657;49.630;11.018;2022-12-18T09:21:33;-7.50;99.90
7232;DHT22;3657;49.630;11.018;2022-12-18T09:24:02;-7.50;99.90
7232;DHT22;3657;49.630;11.018;2022-12-18T09:26:29;-7.40;99.90
7232;DHT22;3657;49.630;11.018;2022-12-18T09:28:56;-7.40;99.90
7232;DHT22;3657;49.630;11.018;2022-12-18T09:31:23;-7.30;99.90
7232;DHT22;3657;49.630;11.018;2022-12-18T09:33:51;-7.30;99.90
7232;DHT22;3657;49.630;11.018;2022-12-18T09:36:18;-7.20;99.90
7232;DHT22;3657;49.630;11.018;2022-12-18T09:38:45;-7.20;99.90
7232;DHT22;3657;49.630;11.018;2022-12-18T09:41:33;-7.10;99.90
7232;DHT22;3657;49.630;11.018;2022-12-18T09:44:11;-7.00;99.90
7232;DHT22;3657;49.630;11.018;2022-12-18T09:46:45;-7.00;99.90
7232;DHT22;3657;49.630;11.018;2022-12-18T09:49:15;-6.80;99.90
7232;DHT22;3657;49.630;11.018;2022-12-18T09:51:46;-6.60;99.90
7232;DHT22;3657;49.630;11.018;2022-12-18T09:54:16;-6.40;99.90
7232;DHT22;3657;49.630;11.018;2022-12-18T09:56:46;-6.20;99.90
7232;DHT22;3657;49.630;11.018;2022-12-18T09:59:21;-5.90;99.90
7232;DHT22;3657;49.630;11.018;2022-12-18T10:01:48;-5.80;99.90
7232;DHT22;3657;49.630;11.018;2022-12-18T10:04:14;-5.60;99.90
7232;DHT22;3657;49.630;11.018;2022-12-18T10:06:46;-5.30;99.90
7232;DHT22;3657;49.630;11.018;2022-12-18T10:09:22;-5.20;99.90
7232;DHT22;3657;49.630;11.018;2022-12-18T10:11:59;-5.10;99.90
7232;DHT22;3657;49.630;11.018;2022-12-18T10:14:36;-4.90;99.90
7232;DHT22;3657;49.630;11.018;2022-12-18T10:17:13;-4.70;99.90
7232;DHT22;3657;49.630;11.018;2022-12-18T10:19:43;-4.50;99.90
7232;DHT22;3657;49.630;11.018;2022-12-18T10:25:19;-3.90;99.90
7232;DHT22;3657;49.630;11.018;2022-12-18T10:27:52;-3.50;99.90
7232;DHT22;3657;49.630;11.018;2022-12-18T10:30:21;-3.20;99.90
7232;DHT22;3657;49.630;11.018;2022-12-18T10:32:49;-3.00;99.90
7232;DHT22;3657;49.630;11.018;2022-12-18T10:35:19;-2.70;99.90
7232;DHT22;3657;49.630;11.018;2022-12-18T10:38:21;-2.50;99.90
7232;DHT22;3657;49.630;11.018;2022-12-18T10:40:49;-2.30;99.90
7232;DHT22;3657;49.630;11.018;2022-12-18T10:43:22;-2.10;99.90
7232;DHT22;3657;49.630;11.018;2022-12-18T10:46:08;-2.00;99.90
7232;DHT22;3657;49.630;11.018;2022-12-18T10:48:41;-1.80;99.90
7232;DHT22;3657;49.630;11.018;2022-12-18T10:51:20;-1.90;99.90
7232;DHT22;3657;49.630;11.018;2022-12-18T10:53:52;-1.90;99.90
7232;DHT22;3657;49.630;11.018;2022-12-18T10:56:20;-1.70;99.90
7232;DHT22;3657;49.630;11.018;2022-12-18T10:58:56;-1.50;99.90
7232;DHT22;3657;49.630;11.018;2022-12-18T11:01:23;-1.40;99.90
7232;DHT22;3657;49.630;11.018;2022-12-18T11:04:00;-1.40;99.90
7232;DHT22;3657;49.630;11.018;2022-12-18T11:06:27;-1.40;99.90
7232;DHT22;3657;49.630;11.018;2022-12-18T11:08:58;-1.30;99.90
7232;DHT22;3657;49.630;11.018;2022-12-18T11:11:25;-1.40;99.90
7232;DHT22;3657;49.630;11.018;2022-12-18T11:13:59;-1.40;99.90
7232;DHT22;3657;49.630;11.018;2022-12-18T11:16:28;-1.30;99.90
7232;DHT22;3657;49.630;11.018;2022-12-18T11:19:19;-1.30;99.90
7232;DHT22;3657;49.630;11.018;2022-12-18T11:21:47;-1.40;99.90
7232;DHT22;3657;49.630;11.018;2022-12-18T11:24:28;-1.30;99.90
7232;DHT22;3657;49.630;11.018;2022-12-18T11:26:57;-1.40;99.90
7232;DHT22;3657;49.630;11.018;2022-12-18T11:29:31;-1.40;99.90
7232;DHT22;3657;49.630;11.018;2022-12-18T11:32:31;-1.50;99.90
7232;DHT22;3657;49.630;11.018;2022-12-18T11:35:10;-1.40;99.90
7232;DHT22;3657;49.630;11.018;2022-12-18T11:37:40;-1.30;99.90
7232;DHT22;3657;49.630;11.018;2022-12-18T11:40:14;-1.30;99.90
7232;DHT22;3657;49.630;11.018;2022-12-18T11:42:45;-1.10;99.90
7232;DHT22;3657;49.630;11.018;2022-12-18T11:45:29;-1.00;99.90
7232;DHT22;3657;49.630;11.018;2022-12-18T11:48:02;-1.10;99.90
7232;DHT22;3657;49.630;11.018;2022-12-18T11:50:38;-1.10;99.90
7232;DHT22;3657;49.630;11.018;2022-12-18T11:53:10;-1.10;99.90
7232;DHT22;3657;49.630;11.018;2022-12-18T11:55:49;-1.10;99.90
7232;DHT22;3657;49.630;11.018;2022-12-18T11:58:27;-1.20;99.90
7232;DHT22;3657;49.630;11.018;2022-12-18T12:01:03;-1.20;99.90
7232;DHT22;3657;49.630;11.018;2022-12-18T12:03:55;-1.40;99.90
7232;DHT22;3657;49.630;11.018;2022-12-18T12:06:31;-1.60;99.90
7232;DHT22;3657;49.630;11.018;2022-12-18T12:09:06;-1.80;99.90
7232;DHT22;3657;49.630;11.018;2022-12-18T12:11:43;-1.90;99.90
7232;DHT22;3657;49.630;11.018;2022-12-18T12:14:24;-2.00;99.90
7232;DHT22;3657;49.630;11.018;2022-12-18T12:16:58;-2.10;99.90
7232;DHT22;3657;49.630;11.018;2022-12-18T12:19:36;-2.20;99.90
7232;DHT22;3657;49.630;11.018;2022-12-18T12:22:12;-2.30;99.90
7232;DHT22;3657;49.630;11.018;2022-12-18T12:24:53;-2.30;99.90
7232;DHT22;3657;49.630;11.018;2022-12-18T12:27:30;-2.30;99.90
7232;DHT22;3657;49.630;11.018;2022-12-18T12:30:04;-2.30;99.90
7232;DHT22;3657;49.630;11.018;2022-12-18T12:32:49;-2.30;99.90
7232;DHT22;3657;49.630;11.018;2022-12-18T12:35:29;-2.30;99.90
7232;DHT22;3657;49.630;11.018;2022-12-18T12:38:05;-2.30;99.90
7232;DHT22;3657;49.630;11.018;2022-12-18T12:40:35;-2.30;99.90
7232;DHT22;3657;49.630;11.018;2022-12-18T12:43:12;-2.30;99.90
7232;DHT22;3657;49.630;11.018;2022-12-18T12:45:46;-2.30;99.90
7232;DHT22;3657;49.630;11.018;2022-12-18T12:48:23;-2.30;99.90
7232;DHT22;3657;49.630;11.018;2022-12-18T12:50:52;-2.30;99.90
7232;DHT22;3657;49.630;11.018;2022-12-18T12:53:25;-2.40;99.90
7232;DHT22;3657;49.630;11.018;2022-12-18T12:55:53;-2.40;99.90
7232;DHT22;3657;49.630;11.018;2022-12-18T12:58:28;-2.40;99.90
7232;DHT22;3657;49.630;11.018;2022-12-18T13:01:08;-2.40;99.90
7232;DHT22;3657;49.630;11.018;2022-12-18T13:03:44;-2.40;99.90
7232;DHT22;3657;49.630;11.018;2022-12-18T13:06:18;-2.40;99.90
7232;DHT22;3657;49.630;11.018;2022-12-18T13:08:55;-2.40;99.90
7232;DHT22;3657;49.630;11.018;2022-12-18T13:11:35;-2.40;99.90
7232;DHT22;3657;49.630;11.018;2022-12-18T13:14:23;-2.50;99.90
7232;DHT22;3657;49.630;11.018;2022-12-18T13:16:50;-2.40;99.90
7232;DHT22;3657;49.630;11.018;2022-12-18T13:19:23;-2.50;99.90
7232;DHT22;3657;49.630;11.018;2022-12-18T13:21:53;-2.50;99.90
7232;DHT22;3657;49.630;11.018;2022-12-18T13:24:25;-2.50;99.90
7232;DHT22;3657;49.630;11.018;2022-12-18T13:26:52;-2.50;99.90
7232;DHT22;3657;49.630;11.018;2022-12-18T13:29:41;-2.60;99.90
7232;DHT22;3657;49.630;11.018;2022-12-18T13:32:21;-2.60;99.90
7232;DHT22;3657;49.630;11.018;2022-12-18T13:37:57;-2.60;99.90
7232;DHT22;3657;49.630;11.018;2022-12-18T13:40:54;-2.70;99.90
7232;DHT22;3657;49.630;11.018;2022-12-18T13:43:33;-2.60;99.90
7232;DHT22;3657;49.630;11.018;2022-12-18T13:46:17;-2.70;99.90
7232;DHT22;3657;49.630;11.018;2022-12-18T13:48:54;-2.70;99.90
7232;DHT22;3657;49.630;11.018;2022-12-18T13:51:23;-2.70;99.90
7232;DHT22;3657;49.630;11.018;2022-12-18T13:53:54;-2.80;99.90
7232;DHT22;3657;49.630;11.018;2022-12-18T13:56:23;-2.80;99.90
7232;DHT22;3657;49.630;11.018;2022-12-18T13:59:13;-2.80;99.90
7232;DHT22;3657;49.630;11.018;2022-12-18T14:01:46;-2.90;99.90
7232;DHT22;3657;49.630;11.018;2022-12-18T14:04:19;-2.90;99.90
7232;DHT22;3657;49.630;11.018;2022-12-18T14:06:47;-2.90;99.90
7232;DHT22;3657;49.630;11.018;2022-12-18T14:09:25;-3.00;99.90
7232;DHT22;3657;49.630;11.018;2022-12-18T14:11:53;-3.00;99.90
7232;DHT22;3657;49.630;11.018;2022-12-18T14:14:43;-3.00;99.90
7232;DHT22;3657;49.630;11.018;2022-12-18T14:17:11;-3.10;99.90
7232;DHT22;3657;49.630;11.018;2022-12-18T14:19:42;-3.00;99.90
7232;DHT22;3657;49.630;11.018;2022-12-18T14:22:15;-3.10;99.90
7232;DHT22;3657;49.630;11.018;2022-12-18T14:24:44;-3.10;99.90
7232;DHT22;3657;49.630;11.018;2022-12-18T14:27:22;-3.10;99.90
7232;DHT22;3657;49.630;11.018;2022-12-18T14:29:50;-3.10;99.90
7232;DHT22;3657;49.630;11.018;2022-12-18T14:32:18;-3.10;99.90
7232;DHT22;3657;49.630;11.018;2022-12-18T14:34:47;-3.20;99.90
7232;DHT22;3657;49.630;11.018;2022-12-18T14:37:16;-3.20;99.90
7232;DHT22;3657;49.630;11.018;2022-12-18T14:39:55;-3.20;99.90
7232;DHT22;3657;49.630;11.018;2022-12-18T14:42:23;-3.20;99.90
7232;DHT22;3657;49.630;11.018;2022-12-18T14:47:53;-3.30;99.90
7232;DHT22;3657;49.630;11.018;2022-12-18T14:50:20;-3.30;99.90
7232;DHT22;3657;49.630;11.018;2022-12-18T14:52:46;-3.30;99.90
7232;DHT22;3657;49.630;11.018;2022-12-18T14:55:17;-3.30;99.90
7232;DHT22;3657;49.630;11.018;2022-12-18T14:57:44;-3.40;99.90
7232;DHT22;3657;49.630;11.018;2022-12-18T15:00:17;-3.40;99.90
7232;DHT22;3657;49.630;11.018;2022-12-18T15:02:46;-3.50;99.90
7232;DHT22;3657;49.630;11.018;2022-12-18T15:05:19;-3.50;99.90
7232;DHT22;3657;49.630;11.018;2022-12-18T15:07:48;-3.50;99.90
7232;DHT22;3657;49.630;11.018;2022-12-18T15:10:18;-3.50;99.90
7232;DHT22;3657;49.630;11.018;2022-12-18T15:12:47;-3.50;99.90
7232;DHT22;3657;49.630;11.018;2022-12-18T15:15:45;-3.60;99.90
7232;DHT22;3657;49.630;11.018;2022-12-18T15:18:14;-3.60;99.90
7232;DHT22;3657;49.630;11.018;2022-12-18T15:20:43;-3.70;99.90
7232;DHT22;3657;49.630;11.018;2022-12-18T15:23:15;-3.70;99.90
7232;DHT22;3657;49.630;11.018;2022-12-18T15:25:45;-3.70;99.90
7232;DHT22;3657;49.630;11.018;2022-12-18T15:28:20;-3.70;99.90
7232;DHT22;3657;49.630;11.018;2022-12-18T15:31:03;-3.70;99.90
7232;DHT22;3657;49.630;11.018;2022-12-18T15:33:32;-3.80;99.90
7232;DHT22;3657;49.630;11.018;2022-12-18T15:36:01;-3.70;99.90
7232;DHT22;3657;49.630;11.018;2022-12-18T15:38:29;-3.80;99.90
7232;DHT22;3657;49.630;11.018;2022-12-18T15:40:57;-3.80;99.90
7232;DHT22;3657;49.630;11.018;2022-12-18T15:43:24;-3.80;99.90
7232;DHT22;3657;49.630;11.018;2022-12-18T15:46:00;-3.90;99.90
7232;DHT22;3657;49.630;11.018;2022-12-18T15:48:27;-3.90;99.90
7232;DHT22;3657;49.630;11.018;2022-12-18T15:50:55;-3.90;99.90
7232;DHT22;3657;49.630;11.018;2022-12-18T15:53:24;-3.90;99.90
7232;DHT22;3657;49.630;11.018;2022-12-18T15:55:51;-3.90;99.90
7232;DHT22;3657;49.630;11.018;2022-12-18T15:58:37;-3.90;99.90
7232;DHT22;3657;49.630;11.018;2022-12-18T16:01:04;-3.90;99.90
7232;DHT22;3657;49.630;11.018;2022-12-18T16:03:31;-3.90;99.90
7232;DHT22;3657;49.630;11.018;2022-12-18T16:05:58;-3.90;99.90
7232;DHT22;3657;49.630;11.018;2022-12-18T16:08:27;-3.90;99.90
7232;DHT22;3657;49.630;11.018;2022-12-18T16:10:54;-3.90;99.90
7232;DHT22;3657;49.630;11.018;2022-12-18T16:13:21;-3.90;99.90
7232;DHT22;3657;49.630;11.018;2022-12-18T16:15:49;-3.90;99.90